createdAt,value
2022-09-22T00:01:11.878Z,83
2022-09-22T00:04:36.995Z,83
2022-09-22T00:08:02.259Z,84
2022-09-22T00:11:27.480Z,84
2022-09-22T00:14:52.684Z,84
2022-09-22T00:18:17.916Z,83
2022-09-22T00:21:43.183Z,83
2022-09-22T00:25:08.397Z,84
2022-09-22T00:28:33.649Z,83
2022-09-22T00:32:01.242Z,83
2022-09-22T00:35:24.071Z,84
2022-09-22T00:38:49.305Z,83
2022-09-22T00:42:14.516Z,83
2022-09-22T00:45:39.760Z,83
2022-09-22T00:49:04.954Z,83
2022-09-22T00:52:30.221Z,84
2022-09-22T00:55:55.434Z,84
2022-09-22T00:59:20.664Z,83
2022-09-22T01:02:45.938Z,83
2022-09-22T01:06:11.155Z,83
2022-09-22T01:09:36.397Z,83
2022-09-22T01:13:01.624Z,84
2022-09-22T01:16:26.897Z,84
2022-09-22T01:19:52.088Z,83
2022-09-22T01:23:17.290Z,83
2022-09-22T01:26:42.508Z,83
2022-09-22T01:30:07.742Z,84
2022-09-22T01:33:32.989Z,84
2022-09-22T01:36:58.227Z,84
2022-09-22T01:40:23.431Z,84
2022-09-22T01:43:48.634Z,84
2022-09-22T01:47:13.898Z,84
2022-09-22T01:50:39.111Z,84
2022-09-22T01:54:04.358Z,83
2022-09-22T01:57:29.582Z,84
2022-09-22T02:00:54.829Z,84
2022-09-22T02:04:20.037Z,84
2022-09-22T02:07:46.013Z,84
2022-09-22T02:11:11.238Z,84
2022-09-22T02:14:36.423Z,84
2022-09-22T02:18:01.650Z,84
2022-09-22T02:21:26.878Z,84
2022-09-22T02:24:52.097Z,84
2022-09-22T02:28:17.328Z,84
2022-09-22T02:31:42.562Z,84
2022-09-22T02:35:07.755Z,84
2022-09-22T02:38:32.979Z,83
2022-09-22T02:41:58.196Z,84
2022-09-22T02:45:23.455Z,84
2022-09-22T02:48:48.639Z,84
2022-09-22T02:52:13.854Z,84
2022-09-22T02:55:39.106Z,84
2022-09-22T02:59:04.317Z,84
2022-09-22T03:02:29.569Z,84
2022-09-22T03:05:54.770Z,84
2022-09-22T03:09:19.971Z,84
2022-09-22T03:13:02.792Z,84
2022-09-22T03:16:10.465Z,84
2022-09-22T03:19:35.683Z,83
2022-09-22T03:23:00.887Z,83
2022-09-22T03:26:26.112Z,83
2022-09-22T03:29:51.340Z,83
2022-09-22T03:33:16.519Z,84
2022-09-22T03:36:41.787Z,84
2022-09-22T03:40:08.579Z,83
2022-09-22T03:43:34.003Z,83
2022-09-22T03:46:59.462Z,83
2022-09-22T03:50:25.068Z,84
2022-09-22T03:53:50.523Z,85
2022-09-22T03:57:16.054Z,84
2022-09-22T04:00:41.655Z,84
2022-09-22T04:04:07.117Z,84
2022-09-22T04:07:32.862Z,84
2022-09-22T04:10:58.429Z,84
2022-09-22T04:14:23.889Z,83
2022-09-22T04:17:49.566Z,83
2022-09-22T04:21:15.054Z,84
2022-09-22T04:24:40.595Z,84
2022-09-22T04:28:06.038Z,84
2022-09-22T04:31:31.543Z,84
2022-09-22T04:34:57.073Z,84
2022-09-22T04:38:22.544Z,84
2022-09-22T04:41:48.076Z,84
2022-09-22T04:45:13.607Z,84
2022-09-22T04:48:39.081Z,84
2022-09-22T04:52:04.571Z,84
2022-09-22T04:55:29.991Z,84
2022-09-22T04:58:55.486Z,84
2022-09-22T05:02:20.957Z,84
2022-09-22T05:05:46.385Z,84
2022-09-22T05:09:11.836Z,84
2022-09-22T05:12:37.282Z,84
2022-09-22T05:16:02.805Z,84
2022-09-22T05:19:28.203Z,84
2022-09-22T05:22:53.689Z,84
2022-09-22T05:26:19.150Z,84
2022-09-22T05:29:44.574Z,85
2022-09-22T05:33:10.109Z,85
2022-09-22T05:36:35.536Z,85
2022-09-22T05:40:01.103Z,85
2022-09-22T05:43:26.458Z,85
2022-09-22T05:46:51.898Z,85
2022-09-22T05:50:17.419Z,85
2022-09-22T05:53:42.903Z,85
2022-09-22T05:57:08.321Z,85
2022-09-22T06:00:33.781Z,86
2022-09-22T06:03:59.219Z,86
2022-09-22T06:07:24.693Z,86
2022-09-22T06:10:50.206Z,86
2022-09-22T06:14:15.627Z,86
2022-09-22T06:17:41.076Z,86
2022-09-22T06:21:06.544Z,86
2022-09-22T06:24:32.037Z,86
2022-09-22T06:27:57.471Z,86
2022-09-22T06:31:22.966Z,87
2022-09-22T06:34:48.400Z,87
2022-09-22T06:38:13.864Z,87
2022-09-22T06:41:39.308Z,87
2022-09-22T06:45:04.808Z,87
2022-09-22T06:48:30.140Z,86
2022-09-22T06:51:55.603Z,87
2022-09-22T06:55:21.034Z,86
2022-09-22T06:59:05.835Z,86
2022-09-22T07:02:12.116Z,86
2022-09-22T07:05:37.486Z,86
2022-09-22T07:09:02.941Z,85
2022-09-22T07:12:28.434Z,85
2022-09-22T07:15:53.955Z,85
2022-09-22T07:19:19.390Z,85
2022-09-22T07:22:45.858Z,84
2022-09-22T07:26:11.306Z,84
2022-09-22T07:29:36.787Z,83
2022-09-22T07:33:02.244Z,82
2022-09-22T07:36:27.716Z,81
2022-09-22T07:39:53.151Z,81
2022-09-22T07:43:18.603Z,81
2022-09-22T07:46:44.109Z,80
2022-09-22T07:50:09.520Z,80
2022-09-22T07:53:34.999Z,77
2022-09-22T07:57:00.425Z,76
2022-09-22T08:00:25.934Z,77
2022-09-22T08:03:51.359Z,78
2022-09-22T08:07:16.790Z,80
2022-09-22T08:10:42.404Z,76
2022-09-22T08:14:07.672Z,77
2022-09-22T08:17:33.179Z,79
2022-09-22T08:20:58.638Z,80
2022-09-22T08:24:24.300Z,80
2022-09-22T08:27:49.580Z,80
2022-09-22T08:31:15.108Z,81
2022-09-22T08:34:40.490Z,80
2022-09-22T08:38:09.334Z,79
2022-09-22T08:41:31.440Z,76
2022-09-22T08:44:56.870Z,76
2022-09-22T08:48:22.332Z,78
2022-09-22T08:51:47.790Z,78
2022-09-22T08:55:13.224Z,78
2022-09-22T08:58:38.684Z,76
2022-09-22T09:02:04.285Z,77
2022-09-22T09:05:29.620Z,76
2022-09-22T09:08:55.071Z,75
2022-09-22T09:12:20.576Z,75
2022-09-22T09:15:46.042Z,75
2022-09-22T09:19:11.500Z,75
2022-09-22T09:22:36.955Z,73
2022-09-22T09:26:02.427Z,72
2022-09-22T09:29:27.905Z,75
2022-09-22T09:32:53.335Z,74
2022-09-22T09:36:18.911Z,72
2022-09-22T09:39:44.292Z,71
2022-09-22T09:43:09.729Z,70
2022-09-22T09:46:35.224Z,72
2022-09-22T09:50:00.648Z,72
2022-09-22T09:53:26.117Z,69
2022-09-22T09:56:51.554Z,70
2022-09-22T10:00:17.178Z,70
2022-09-22T10:03:43.793Z,69
2022-09-22T10:07:09.314Z,67
2022-09-22T10:10:34.777Z,70
2022-09-22T10:14:00.204Z,67
2022-09-22T10:17:25.921Z,66
2022-09-22T10:20:51.448Z,67
2022-09-22T10:24:17.011Z,65
2022-09-22T10:27:42.505Z,66
2022-09-22T10:31:07.992Z,61
2022-09-22T10:34:33.565Z,62
2022-09-22T10:37:58.973Z,62
2022-09-22T10:41:24.467Z,62
2022-09-22T10:44:49.985Z,62
2022-09-22T10:51:43.094Z,64
2022-09-22T10:55:08.632Z,56
2022-09-22T10:58:34.090Z,61
2022-09-22T11:01:59.721Z,64
2022-09-22T11:05:25.072Z,61
2022-09-22T11:08:50.550Z,60
2022-09-22T11:12:16.022Z,60
2022-09-22T11:15:41.566Z,59
2022-09-22T11:19:07.029Z,59
2022-09-22T11:22:32.508Z,61
2022-09-22T11:25:58.078Z,60
2022-09-22T11:29:23.536Z,59
2022-09-22T11:32:49.170Z,57
2022-09-22T11:36:14.692Z,57
2022-09-22T11:39:40.336Z,57
2022-09-22T11:43:05.827Z,58
2022-09-22T11:46:31.367Z,61
2022-09-22T11:49:56.833Z,61
2022-09-22T11:53:22.372Z,61
2022-09-22T11:56:47.820Z,62
2022-09-22T12:00:13.283Z,60
2022-09-22T12:03:38.866Z,62
2022-09-22T12:07:04.242Z,62
2022-09-22T12:10:29.762Z,59
2022-09-22T12:13:55.414Z,57
2022-09-22T12:17:22.886Z,60
2022-09-22T12:20:46.416Z,58
2022-09-22T12:24:11.928Z,55
2022-09-22T12:27:37.466Z,50
2022-09-22T12:31:03.083Z,53
2022-09-22T12:34:28.459Z,54
2022-09-22T12:37:53.910Z,53
2022-09-22T12:41:19.368Z,54
2022-09-22T12:44:45.029Z,56
2022-09-22T12:48:11.398Z,54
2022-09-22T12:51:37.770Z,55
2022-09-22T12:55:03.263Z,55
2022-09-22T12:58:28.830Z,54
2022-09-22T13:01:56.823Z,60
2022-09-22T13:05:22.375Z,60
2022-09-22T13:08:48.864Z,59
2022-09-22T13:12:14.424Z,58
2022-09-22T13:15:39.966Z,60
2022-09-22T13:19:05.478Z,58
2022-09-22T13:22:30.996Z,59
2022-09-22T13:25:56.497Z,57
2022-09-22T13:29:21.982Z,58
2022-09-22T13:32:47.488Z,56
2022-09-22T13:36:13.035Z,55
2022-09-22T13:39:40.385Z,55
2022-09-22T13:43:03.990Z,53
2022-09-22T13:46:29.467Z,55
2022-09-22T13:49:54.963Z,54
2022-09-22T13:53:20.473Z,53
2022-09-22T13:56:45.899Z,55
2022-09-22T14:00:11.718Z,54
2022-09-22T14:03:37.214Z,55
2022-09-22T14:07:02.648Z,55
2022-09-22T14:10:28.166Z,57
2022-09-22T14:13:53.684Z,59
2022-09-22T14:17:19.314Z,60
2022-09-22T14:20:44.777Z,61
2022-09-22T14:24:10.279Z,60
2022-09-22T14:27:35.828Z,61
2022-09-22T15:05:27.623Z,60
2022-09-22T15:08:56.179Z,60
2022-09-22T15:12:21.540Z,60
2022-09-22T15:15:46.927Z,60
2022-09-22T15:19:12.347Z,61
2022-09-22T15:22:37.679Z,61
2022-09-22T15:26:02.984Z,63
2022-09-22T15:29:28.320Z,60
2022-09-22T15:32:53.685Z,60
2022-09-22T15:36:18.999Z,61
2022-09-22T15:39:44.344Z,60
2022-09-22T15:43:12.977Z,62
2022-09-22T15:46:35.155Z,61
2022-09-22T15:50:00.492Z,62
2022-09-22T15:53:25.808Z,60
2022-09-22T15:56:51.238Z,62
2022-09-22T16:00:16.466Z,66
2022-09-22T16:03:41.785Z,67
2022-09-22T16:07:07.110Z,64
2022-09-22T16:10:32.444Z,65
2022-09-22T16:13:58.002Z,66
2022-09-22T16:17:23.101Z,68
2022-09-22T16:20:48.428Z,66
2022-09-22T16:24:13.743Z,68
2022-09-22T16:27:39.062Z,68
2022-09-22T16:31:04.447Z,68
2022-09-22T16:34:29.835Z,67
2022-09-22T16:37:55.402Z,69
2022-09-22T16:41:20.899Z,70
2022-09-22T16:44:46.419Z,70
2022-09-22T16:48:11.951Z,71
2022-09-22T16:51:37.464Z,72
2022-09-22T16:55:02.943Z,72
2022-09-22T16:58:28.461Z,73
2022-09-22T17:01:54.063Z,74
2022-09-22T17:05:19.562Z,74
2022-09-22T17:08:45.044Z,75
2022-09-22T17:12:10.562Z,75
2022-09-22T17:15:36.237Z,76
2022-09-22T17:19:01.622Z,77
2022-09-22T17:22:27.225Z,78
2022-09-22T17:25:52.695Z,78
2022-09-22T17:29:18.192Z,79
2022-09-22T17:32:43.728Z,79
2022-09-22T20:16:58.597Z,82
2022-09-22T20:20:23.889Z,81
2022-09-22T20:23:49.223Z,81
2022-09-22T20:27:14.551Z,81
2022-09-22T20:30:39.941Z,81
2022-09-22T20:34:05.329Z,82
2022-09-22T20:37:30.584Z,81
2022-09-22T20:40:55.904Z,82
2022-09-22T20:44:21.231Z,82
2022-09-22T20:47:46.525Z,82
2022-09-22T20:51:11.879Z,81
2022-09-22T20:54:37.175Z,81
2022-09-22T20:58:02.485Z,82
2022-09-22T21:01:27.886Z,82
2022-09-22T21:04:53.170Z,81
2022-09-22T21:08:18.583Z,81
2022-09-22T21:11:43.912Z,81
2022-09-22T21:15:09.266Z,81
2022-09-22T21:18:34.628Z,81
2022-09-22T21:21:59.966Z,81
2022-09-22T21:25:25.366Z,81
2022-09-22T21:28:50.675Z,81
2022-09-22T21:32:16.062Z,82
2022-09-22T21:35:41.423Z,81
2022-09-22T21:39:06.783Z,82
2022-09-22T21:42:32.137Z,81
2022-09-22T21:46:00.143Z,82
2022-09-22T21:49:22.815Z,81
2022-09-22T21:52:48.216Z,82
2022-09-22T21:56:13.563Z,82
2022-09-22T21:59:38.923Z,81
2022-09-22T22:03:04.236Z,82
2022-09-22T22:06:29.568Z,82
2022-09-22T22:09:54.905Z,81
2022-09-22T22:13:20.267Z,81
2022-09-22T22:16:45.583Z,81
2022-09-22T22:20:10.903Z,81
2022-09-22T22:23:36.230Z,81
2022-09-22T22:27:01.649Z,81
2022-09-22T22:30:26.894Z,82
2022-09-22T22:33:52.249Z,81
2022-09-22T22:37:17.539Z,81
2022-09-22T22:40:42.930Z,81
2022-09-22T22:44:08.214Z,82
2022-09-22T22:47:33.597Z,82
2022-09-22T22:50:58.955Z,82
2022-09-22T22:54:24.308Z,82
2022-09-22T22:57:49.707Z,82
2022-09-22T23:01:15.061Z,81
2022-09-22T23:04:40.354Z,82
2022-09-22T23:08:05.721Z,82
2022-09-22T23:11:31.054Z,81
2022-09-22T23:14:56.387Z,81
2022-09-22T23:18:21.742Z,81
2022-09-22T23:21:47.104Z,81
2022-09-22T23:25:12.452Z,81
2022-09-22T23:28:37.805Z,81
2022-09-22T23:32:03.143Z,81
2022-09-22T23:35:28.528Z,82
2022-09-22T23:38:53.913Z,81
2022-09-22T23:42:19.287Z,82
2022-09-22T23:45:44.751Z,82
2022-09-22T23:49:10.076Z,82
2022-09-22T23:52:35.414Z,81
2022-09-22T23:56:00.744Z,81
2022-09-22T23:59:26.171Z,81
